Time;durP1;ratioP1;P1;durP2;ratioP2;P2;SDS_P1;SDS_P2;PMS_P1;PMS_P2;Temp;Humidity;BMP_temperature;BMP_pressure;BME280_temperature;BME280_humidity;BME280_pressure;Samples;Min_cycle;Max_cycle;Signal;HPM_P1;HPM_P2
2022/01/31 00:02:03;;;;;;;9.90;3.80;;;;;;;;;;4974681;28;20473;-76
2022/01/31 00:04:29;;;;;;;10.03;3.87;;;;;;;;;;4972451;28;20433;-76
2022/01/31 00:06:56;;;;;;;3.47;2.53;;;;;;;;;;4976362;28;20972;-75
2022/01/31 00:09:23;;;;;;;6.60;3.03;;;;;;;;;;4937113;28;20464;-76
2022/01/31 00:12:00;;;;;;;5.93;3.60;;;;;;;;;;4976422;28;20641;-76
2022/01/31 00:14:34;;;;;;;9.83;3.17;;;;;;;;;;4970859;28;20973;-75
2022/01/31 00:17:00;;;;;;;8.97;4.90;;;;;;;;;;4977590;28;20421;-75
2022/01/31 00:19:26;;;;;;;3.83;3.00;;;;;;;;;;4951002;28;20460;-75
2022/01/31 00:21:52;;;;;;;6.40;3.30;;;;;;;;;;4975543;28;20476;-75
2022/01/31 00:24:18;;;;;;;6.53;4.30;;;;;;;;;;4956312;28;20473;-76
2022/01/31 00:26:44;;;;;;;4.33;3.17;;;;;;;;;;4953122;28;20532;-75
2022/01/31 00:29:10;;;;;;;5.67;3.73;;;;;;;;;;4977243;28;20485;-76
2022/01/31 00:31:36;;;;;;;6.00;3.07;;;;;;;;;;4965834;28;20449;-76
2022/01/31 00:34:02;;;;;;;10.60;3.70;;;;;;;;;;4975513;28;20445;-75
2022/01/31 00:36:28;;;;;;;5.60;3.30;;;;;;;;;;4961819;28;20460;-76
2022/01/31 00:38:54;;;;;;;4.27;2.50;;;;;;;;;;4975683;28;20445;-76
2022/01/31 00:41:20;;;;;;;11.20;3.70;;;;;;;;;;4932272;28;20978;-76
2022/01/31 00:43:56;;;;;;;5.67;3.20;;;;;;;;;;4975595;28;20449;-76
2022/01/31 00:46:28;;;;;;;5.00;2.93;;;;;;;;;;4971516;28;20440;-76
2022/01/31 00:48:54;;;;;;;6.50;3.57;;;;;;;;;;4954244;28;20483;-76
2022/01/31 00:51:20;;;;;;;6.30;3.10;;;;;;;;;;4976603;28;20434;-76
2022/01/31 00:53:46;;;;;;;12.13;3.60;;;;;;;;;;4952012;28;20456;-76
2022/01/31 00:56:12;;;;;;;5.77;3.00;;;;;;;;;;4977559;28;20465;-75
2022/01/31 00:58:38;;;;;;;9.40;3.27;;;;;;;;;;4950250;28;20503;-76
2022/01/31 01:01:04;;;;;;;12.80;3.90;;;;;;;;;;4969519;28;20465;-75
2022/01/31 01:03:30;;;;;;;11.20;3.63;;;;;;;;;;4972007;28;20441;-75
2022/01/31 01:05:56;;;;;;;13.00;4.17;;;;;;;;;;4983158;28;20521;-75
2022/01/31 01:08:21;;;;;;;9.00;3.67;;;;;;;;;;4971428;28;20495;-76
2022/01/31 01:10:47;;;;;;;8.97;3.60;;;;;;;;;;4976626;28;20433;-75
2022/01/31 01:13:13;;;;;;;7.27;4.40;;;;;;;;;;4934973;28;20453;-76
2022/01/31 01:15:39;;;;;;;8.47;2.67;;;;;;;;;;4979848;28;20420;-76
2022/01/31 01:18:05;;;;;;;7.10;4.77;;;;;;;;;;4969376;28;20446;-76
2022/01/31 01:20:31;;;;;;;7.83;3.43;;;;;;;;;;4972055;28;20460;-75
2022/01/31 01:22:57;;;;;;;11.67;3.83;;;;;;;;;;4981919;28;20433;-77
2022/01/31 01:25:23;;;;;;;6.13;3.47;;;;;;;;;;4976048;28;20433;-76
2022/01/31 01:27:52;;;;;;;8.67;3.70;;;;;;;;;;4956294;28;20514;-76
2022/01/31 01:30:18;;;;;;;6.37;2.97;;;;;;;;;;4977249;28;20477;-76
2022/01/31 01:35:25;;;;;;;5.30;3.60;;;;;;;;;;4980944;28;20434;-75
2022/01/31 01:37:51;;;;;;;9.50;3.70;;;;;;;;;;4979627;28;20441;-76
2022/01/31 01:40:17;;;;;;;7.37;3.73;;;;;;;;;;4981901;28;20511;-75
2022/01/31 01:42:43;;;;;;;8.30;3.20;;;;;;;;;;4977220;28;20547;-76
2022/01/31 01:45:09;;;;;;;8.63;3.37;;;;;;;;;;4977184;28;20452;-76
2022/01/31 01:47:35;;;;;;;9.63;5.07;;;;;;;;;;4938709;28;20464;-76
2022/01/31 01:50:01;;;;;;;9.27;3.73;;;;;;;;;;4988037;28;20442;-75
2022/01/31 01:52:26;;;;;;;10.93;4.53;;;;;;;;;;4981419;28;20432;-76
2022/01/31 01:54:52;;;;;;;5.10;2.80;;;;;;;;;;4980865;28;20441;-76
2022/01/31 01:57:20;;;;;;;6.27;3.33;;;;;;;;;;4958580;28;20491;-76
2022/01/31 01:59:46;;;;;;;5.50;3.50;;;;;;;;;;4982963;28;20446;-76
2022/01/31 02:02:12;;;;;;;10.50;3.30;;;;;;;;;;4975812;28;20902;-76
2022/01/31 02:04:38;;;;;;;6.90;4.23;;;;;;;;;;4987486;28;20533;-76
2022/01/31 02:07:04;;;;;;;10.40;3.67;;;;;;;;;;4962751;28;20696;-76
2022/01/31 02:09:31;;;;;;;11.40;3.53;;;;;;;;;;4984167;28;20437;-76
2022/01/31 02:11:57;;;;;;;7.23;3.10;;;;;;;;;;4963734;28;20496;-75
2022/01/31 02:14:24;;;;;;;9.03;4.27;;;;;;;;;;4985444;28;20503;-76
2022/01/31 02:16:50;;;;;;;9.67;3.40;;;;;;;;;;4981446;28;20437;-76
2022/01/31 02:19:20;;;;;;;11.10;3.47;;;;;;;;;;4991439;28;20442;-76
2022/01/31 02:21:49;;;;;;;9.03;3.07;;;;;;;;;;4942408;28;20446;-77
2022/01/31 02:24:16;;;;;;;7.50;3.60;;;;;;;;;;4985476;28;20445;-77
2022/01/31 02:26:42;;;;;;;9.80;3.23;;;;;;;;;;4961483;28;20433;-77
2022/01/31 02:29:11;;;;;;;8.00;3.60;;;;;;;;;;4989308;28;21085;-77
2022/01/31 02:31:37;;;;;;;11.10;3.77;;;;;;;;;;4961945;28;20692;-76
2022/01/31 02:34:03;;;;;;;12.60;3.77;;;;;;;;;;4983633;28;20560;-76
2022/01/31 02:36:29;;;;;;;5.40;3.00;;;;;;;;;;4978914;28;20572;-76
2022/01/31 02:38:55;;;;;;;10.13;3.10;;;;;;;;;;4985340;28;20806;-76
2022/01/31 02:41:21;;;;;;;9.03;3.43;;;;;;;;;;4963585;28;20445;-77
2022/01/31 02:43:50;;;;;;;7.50;4.87;;;;;;;;;;4984381;28;20468;-76
2022/01/31 02:46:16;;;;;;;12.10;4.30;;;;;;;;;;4978313;28;20965;-76
2022/01/31 02:48:42;;;;;;;10.50;3.83;;;;;;;;;;4991186;28;21056;-76
2022/01/31 02:51:10;;;;;;;9.53;3.73;;;;;;;;;;4944565;28;20521;-77
2022/01/31 02:53:41;;;;;;;4.93;3.47;;;;;;;;;;4987166;28;20442;-77
2022/01/31 02:56:07;;;;;;;6.83;3.10;;;;;;;;;;4961010;28;20513;-77
2022/01/31 02:58:33;;;;;;;5.50;3.40;;;;;;;;;;4985369;28;20453;-76
2022/01/31 03:00:59;;;;;;;3.20;2.67;;;;;;;;;;4979662;28;20441;-77
2022/01/31 03:03:24;;;;;;;4.93;2.70;;;;;;;;;;4976956;28;20441;-77
2022/01/31 03:05:51;;;;;;;7.37;3.50;;;;;;;;;;4951085;28;20914;-76
2022/01/31 03:08:17;;;;;;;6.13;4.03;;;;;;;;;;4982016;28;20485;-77
2022/01/31 03:10:43;;;;;;;10.70;2.73;;;;;;;;;;4957571;28;21003;-77
2022/01/31 03:13:09;;;;;;;5.80;3.20;;;;;;;;;;4976799;28;20446;-75
2022/01/31 03:15:35;;;;;;;8.73;3.67;;;;;;;;;;4949627;28;21298;-75
2022/01/31 03:18:01;;;;;;;6.30;3.40;;;;;;;;;;4980651;28;20429;-76
2022/01/31 03:20:27;;;;;;;5.50;3.20;;;;;;;;;;4930186;28;23939;-76
2022/01/31 03:22:53;;;;;;;8.57;3.30;;;;;;;;;;4955215;28;20425;-77
2022/01/31 03:25:19;;;;;;;6.23;3.93;;;;;;;;;;4976681;28;20525;-76
2022/01/31 03:27:45;;;;;;;5.40;2.57;;;;;;;;;;4973791;28;20497;-76
2022/01/31 03:30:13;;;;;;;8.47;3.57;;;;;;;;;;4960692;28;20449;-76
2022/01/31 03:32:39;;;;;;;10.93;3.47;;;;;;;;;;4962435;28;20445;-75
2022/01/31 03:35:05;;;;;;;5.40;2.80;;;;;;;;;;4975262;28;20935;-76
2022/01/31 03:37:31;;;;;;;9.43;3.10;;;;;;;;;;4958055;28;21241;-75
2022/01/31 03:39:57;;;;;;;4.40;3.37;;;;;;;;;;4975856;28;20509;-76
2022/01/31 03:42:23;;;;;;;7.47;3.17;;;;;;;;;;4956305;28;20463;-76
2022/01/31 03:44:49;;;;;;;9.30;2.70;;;;;;;;;;4978778;28;20492;-76
2022/01/31 03:47:16;;;;;;;11.60;4.10;;;;;;;;;;4950874;28;21067;-76
2022/01/31 03:49:42;;;;;;;5.60;3.63;;;;;;;;;;4976247;28;20495;-75
2022/01/31 03:52:08;;;;;;;7.83;3.07;;;;;;;;;;4939276;28;20709;-76
2022/01/31 03:54:33;;;;;;;5.10;3.13;;;;;;;;;;4980191;28;20969;-75
2022/01/31 03:56:59;;;;;;;8.23;3.23;;;;;;;;;;4982800;28;20433;-75
2022/01/31 03:59:25;;;;;;;5.60;3.30;;;;;;;;;;4976639;28;20534;-75
2022/01/31 04:01:51;;;;;;;4.53;2.70;;;;;;;;;;4969835;28;20449;-75
2022/01/31 04:04:18;;;;;;;4.77;3.00;;;;;;;;;;4973558;28;20778;-75
2022/01/31 04:06:44;;;;;;;5.13;2.77;;;;;;;;;;4954359;28;20457;-75
2022/01/31 04:09:09;;;;;;;6.20;3.20;;;;;;;;;;4954958;28;20492;-76
2022/01/31 04:11:35;;;;;;;4.60;2.97;;;;;;;;;;4950752;28;20955;-75
2022/01/31 04:14:01;;;;;;;6.53;2.80;;;;;;;;;;4952814;28;20448;-76
2022/01/31 04:16:27;;;;;;;8.90;3.37;;;;;;;;;;4952529;28;20988;-76
2022/01/31 04:18:53;;;;;;;8.70;3.10;;;;;;;;;;4950282;28;21002;-75
2022/01/31 04:21:21;;;;;;;7.63;2.80;;;;;;;;;;4960879;28;20449;-75
2022/01/31 04:23:47;;;;;;;4.40;2.57;;;;;;;;;;4957873;28;20430;-75
2022/01/31 04:26:15;;;;;;;8.20;2.43;;;;;;;;;;4953824;28;21073;-76
2022/01/31 04:28:46;;;;;;;5.30;2.73;;;;;;;;;;4932675;28;20478;-77
2022/01/31 04:33:46;;;;;;;11.27;2.87;;;;;;;;;;4959474;28;20803;-75
2022/01/31 04:36:14;;;;;;;6.97;2.90;;;;;;;;;;4958754;28;20433;-76
2022/01/31 04:38:40;;;;;;;9.17;3.07;;;;;;;;;;4969987;28;20853;-77
2022/01/31 04:41:06;;;;;;;5.13;2.80;;;;;;;;;;4960119;28;20465;-76
2022/01/31 04:43:33;;;;;;;5.13;3.70;;;;;;;;;;4937725;28;20957;-76
2022/01/31 04:46:01;;;;;;;8.47;3.57;;;;;;;;;;4959076;28;20535;-76
2022/01/31 04:48:27;;;;;;;4.63;2.90;;;;;;;;;;4944050;28;20473;-76
2022/01/31 04:50:53;;;;;;;5.10;3.73;;;;;;;;;;4956958;28;20962;-76
2022/01/31 04:53:19;;;;;;;4.13;3.27;;;;;;;;;;4941265;28;20959;-76
2022/01/31 04:55:45;;;;;;;6.17;3.50;;;;;;;;;;4960198;28;21290;-76
2022/01/31 04:58:11;;;;;;;5.87;4.60;;;;;;;;;;4925628;28;20668;-76
2022/01/31 05:00:37;;;;;;;5.67;2.83;;;;;;;;;;4961082;28;20472;-75
2022/01/31 05:03:08;;;;;;;7.27;3.60;;;;;;;;;;4956013;28;23026;-76
2022/01/31 05:05:35;;;;;;;2.50;2.13;;;;;;;;;;4961999;28;20549;-76
2022/01/31 05:08:01;;;;;;;3.90;2.63;;;;;;;;;;4955261;28;20592;-76
2022/01/31 05:10:27;;;;;;;8.40;3.03;;;;;;;;;;4962471;28;20458;-76
2022/01/31 05:12:53;;;;;;;9.57;3.90;;;;;;;;;;4942998;28;20469;-76
2022/01/31 05:15:19;;;;;;;5.37;2.87;;;;;;;;;;4961487;28;20537;-76
2022/01/31 05:17:44;;;;;;;13.83;2.77;;;;;;;;;;4943027;28;20482;-75
2022/01/31 05:20:11;;;;;;;5.00;3.63;;;;;;;;;;4954891;28;20508;-75
2022/01/31 05:22:37;;;;;;;5.43;2.80;;;;;;;;;;4937272;28;20616;-76
2022/01/31 05:25:03;;;;;;;6.90;2.70;;;;;;;;;;4961387;28;21228;-76
2022/01/31 05:27:29;;;;;;;6.53;2.67;;;;;;;;;;4903110;28;20689;-76
2022/01/31 05:29:55;;;;;;;9.70;3.57;;;;;;;;;;4962379;28;20496;-75
2022/01/31 05:32:21;;;;;;;6.87;2.97;;;;;;;;;;4958243;28;20496;-76
2022/01/31 05:34:47;;;;;;;5.10;2.30;;;;;;;;;;4954587;28;20524;-75
2022/01/31 05:37:13;;;;;;;5.63;2.50;;;;;;;;;;4938843;28;20472;-76
2022/01/31 05:39:39;;;;;;;8.63;2.50;;;;;;;;;;4958379;28;20433;-75
2022/01/31 05:42:05;;;;;;;6.47;2.50;;;;;;;;;;4954419;28;20481;-75
2022/01/31 05:44:31;;;;;;;7.90;3.37;;;;;;;;;;4954804;28;20441;-77
2022/01/31 05:47:00;;;;;;;9.63;3.00;;;;;;;;;;4935762;28;20886;-76
2022/01/31 05:49:26;;;;;;;4.67;3.07;;;;;;;;;;4956659;28;21242;-76
2022/01/31 05:51:54;;;;;;;4.30;2.30;;;;;;;;;;4940150;28;21027;-75
2022/01/31 05:54:20;;;;;;;6.53;2.77;;;;;;;;;;4956398;28;21078;-76
2022/01/31 05:56:46;;;;;;;5.10;2.60;;;;;;;;;;4940964;28;20824;-74
2022/01/31 05:59:12;;;;;;;5.37;3.10;;;;;;;;;;4956817;28;20680;-74
2022/01/31 06:01:39;;;;;;;4.40;2.70;;;;;;;;;;4921745;28;20449;-76
2022/01/31 06:04:08;;;;;;;5.50;2.70;;;;;;;;;;4958555;28;21000;-75
2022/01/31 06:06:34;;;;;;;17.23;3.30;;;;;;;;;;4959396;28;20461;-75
2022/01/31 06:09:00;;;;;;;5.47;3.37;;;;;;;;;;4961608;28;20626;-75
2022/01/31 06:11:26;;;;;;;4.40;2.90;;;;;;;;;;4957468;28;20438;-75
2022/01/31 06:13:55;;;;;;;8.00;3.13;;;;;;;;;;4963099;28;21222;-75
2022/01/31 06:16:21;;;;;;;6.80;3.20;;;;;;;;;;4937487;28;20522;-74
2022/01/31 06:18:47;;;;;;;3.47;2.50;;;;;;;;;;4933199;28;20481;-76
2022/01/31 06:21:13;;;;;;;4.93;2.63;;;;;;;;;;4961160;28;21476;-76
2022/01/31 06:23:39;;;;;;;4.93;3.63;;;;;;;;;;4941463;28;20515;-76
2022/01/31 06:26:05;;;;;;;7.03;2.80;;;;;;;;;;4963307;28;20445;-75
2022/01/31 06:28:31;;;;;;;6.07;3.67;;;;;;;;;;4953015;28;20492;-75
2022/01/31 06:30:58;;;;;;;8.37;2.87;;;;;;;;;;4962865;28;20499;-75
2022/01/31 06:33:24;;;;;;;5.60;2.80;;;;;;;;;;4918522;28;20454;-76
2022/01/31 06:35:50;;;;;;;7.50;3.43;;;;;;;;;;4935425;28;20445;-78
2022/01/31 06:38:16;;;;;;;6.17;3.47;;;;;;;;;;4956920;28;20822;-75
2022/01/31 06:40:42;;;;;;;11.10;3.40;;;;;;;;;;4929797;28;23549;-75
2022/01/31 06:43:08;;;;;;;5.20;2.30;;;;;;;;;;4947603;28;20451;-75
2022/01/31 06:45:34;;;;;;;6.17;3.37;;;;;;;;;;4942132;28;20480;-75
2022/01/31 06:48:00;;;;;;;7.37;3.67;;;;;;;;;;4960802;28;20964;-74
2022/01/31 06:50:26;;;;;;;9.03;3.80;;;;;;;;;;4932469;28;20549;-74
2022/01/31 06:52:55;;;;;;;6.23;3.13;;;;;;;;;;4963131;28;20917;-74
2022/01/31 06:55:21;;;;;;;4.53;2.77;;;;;;;;;;4943598;28;20453;-75
2022/01/31 06:57:48;;;;;;;10.90;4.10;;;;;;;;;;4955321;28;20441;-75
2022/01/31 07:00:14;;;;;;;6.60;3.27;;;;;;;;;;4935563;28;20443;-73
2022/01/31 07:02:40;;;;;;;8.40;3.30;;;;;;;;;;4961175;28;21117;-76
2022/01/31 07:05:06;;;;;;;5.90;2.73;;;;;;;;;;4944972;28;20452;-75
2022/01/31 07:07:33;;;;;;;7.17;2.67;;;;;;;;;;4939075;28;20573;-75
2022/01/31 07:10:02;;;;;;;11.43;3.67;;;;;;;;;;4960481;28;20483;-74
2022/01/31 07:12:32;;;;;;;6.70;3.13;;;;;;;;;;4963260;28;20509;-74
2022/01/31 07:14:58;;;;;;;6.30;2.70;;;;;;;;;;4965302;28;20439;-73
2022/01/31 07:17:24;;;;;;;3.70;2.90;;;;;;;;;;4955108;28;21600;-75
2022/01/31 07:19:50;;;;;;;4.87;3.40;;;;;;;;;;4956183;28;20532;-75
2022/01/31 07:22:19;;;;;;;4.80;3.10;;;;;;;;;;4949775;28;21227;-75
2022/01/31 07:24:49;;;;;;;3.50;2.67;;;;;;;;;;4945524;28;20922;-75
2022/01/31 07:27:15;;;;;;;4.23;2.37;;;;;;;;;;4961990;28;22416;-76
2022/01/31 07:29:41;;;;;;;4.30;2.87;;;;;;;;;;4948779;28;20559;-74
2022/01/31 07:32:10;;;;;;;3.83;3.00;;;;;;;;;;4975512;28;20545;-74
2022/01/31 07:34:38;;;;;;;17.23;3.10;;;;;;;;;;4916006;28;21037;-73
2022/01/31 07:37:04;;;;;;;4.47;2.53;;;;;;;;;;4959285;28;20935;-73
2022/01/31 07:39:30;;;;;;;4.40;2.30;;;;;;;;;;4924606;28;20749;-74
2022/01/31 07:41:56;;;;;;;5.87;3.00;;;;;;;;;;4950418;28;21219;-75
2022/01/31 07:44:22;;;;;;;4.33;2.10;;;;;;;;;;4954914;28;20882;-75
2022/01/31 07:46:49;;;;;;;2.90;2.03;;;;;;;;;;4960543;28;20448;-76
2022/01/31 07:49:16;;;;;;;5.83;2.27;;;;;;;;;;4939077;28;22573;-75
2022/01/31 07:51:42;;;;;;;4.47;2.40;;;;;;;;;;4946140;28;20444;-76
2022/01/31 07:54:08;;;;;;;3.30;1.90;;;;;;;;;;4937417;28;20938;-75
2022/01/31 07:56:35;;;;;;;3.37;2.70;;;;;;;;;;4949214;28;20437;-75
2022/01/31 07:59:01;;;;;;;3.20;2.13;;;;;;;;;;4950874;28;20451;-75
2022/01/31 08:01:27;;;;;;;4.50;2.90;;;;;;;;;;4937358;28;20438;-75
2022/01/31 08:03:53;;;;;;;2.77;2.00;;;;;;;;;;4955181;28;20445;-75
2022/01/31 08:06:19;;;;;;;4.53;1.83;;;;;;;;;;4941207;28;20499;-74
2022/01/31 08:08:45;;;;;;;3.40;1.97;;;;;;;;;;4945368;28;20519;-75
2022/01/31 08:11:11;;;;;;;3.00;2.30;;;;;;;;;;4945410;28;20446;-74
2022/01/31 08:13:38;;;;;;;4.13;1.50;;;;;;;;;;4935483;28;20585;-75
2022/01/31 08:18:33;;;;;;;2.67;2.00;;;;;;;;;;4954495;28;23505;-75
2022/01/31 08:20:59;;;;;;;2.30;2.10;;;;;;;;;;4951753;28;20439;-75
2022/01/31 08:23:25;;;;;;;3.73;1.67;;;;;;;;;;4940400;28;20468;-75
2022/01/31 08:25:52;;;;;;;3.50;1.83;;;;;;;;;;4955719;28;20434;-74
2022/01/31 08:28:19;;;;;;;2.80;1.43;;;;;;;;;;4938111;28;21301;-74
2022/01/31 08:31:05;;;;;;;2.47;1.40;;;;;;;;;;4959419;28;21056;-73
2022/01/31 08:33:35;;;;;;;2.90;1.73;;;;;;;;;;4943193;28;20447;-73
2022/01/31 08:36:01;;;;;;;1.90;1.17;;;;;;;;;;4958093;28;20453;-74
2022/01/31 08:38:27;;;;;;;2.00;1.00;;;;;;;;;;4953647;28;20567;-74
2022/01/31 08:40:53;;;;;;;1.73;1.30;;;;;;;;;;4957550;28;20521;-74
2022/01/31 08:43:20;;;;;;;1.43;1.20;;;;;;;;;;4920711;28;20461;-75
2022/01/31 08:45:47;;;;;;;1.50;1.20;;;;;;;;;;4951421;28;20446;-73
2022/01/31 08:48:13;;;;;;;1.83;0.90;;;;;;;;;;4938346;28;20481;-74
2022/01/31 08:50:39;;;;;;;1.40;1.13;;;;;;;;;;4957771;28;20519;-75
2022/01/31 08:53:05;;;;;;;1.87;1.27;;;;;;;;;;4933826;28;20449;-74
2022/01/31 08:55:31;;;;;;;1.80;1.20;;;;;;;;;;4951041;28;21870;-73
2022/01/31 08:57:58;;;;;;;1.70;1.20;;;;;;;;;;4930413;28;20437;-75
2022/01/31 09:00:33;;;;;;;5.50;1.37;;;;;;;;;;4970085;28;21355;-74
2022/01/31 09:04:00;;;;;;;1.40;1.30;;;;;;;;;;4936428;28;20469;-74
2022/01/31 09:05:50;;;;;;;1.33;1.00;;;;;;;;;;4950253;28;20576;-75
2022/01/31 09:08:16;;;;;;;2.23;1.40;;;;;;;;;;4954470;28;20481;-75
2022/01/31 09:10:43;;;;;;;1.30;0.80;;;;;;;;;;4959085;28;20913;-75
2022/01/31 09:13:13;;;;;;;2.90;1.30;;;;;;;;;;4948016;28;20445;-75
2022/01/31 09:15:40;;;;;;;2.33;1.00;;;;;;;;;;4960852;28;20442;-74
2022/01/31 09:18:07;;;;;;;1.87;1.30;;;;;;;;;;4921700;28;21409;-75
2022/01/31 09:20:33;;;;;;;1.77;1.23;;;;;;;;;;4955958;28;20472;-74
2022/01/31 09:22:59;;;;;;;1.73;1.10;;;;;;;;;;4953285;28;20429;-74
2022/01/31 09:25:28;;;;;;;2.03;1.30;;;;;;;;;;4951905;28;20428;-75
2022/01/31 09:27:53;;;;;;;1.40;1.20;;;;;;;;;;4937224;28;20480;-75
2022/01/31 09:30:22;;;;;;;4.40;1.43;;;;;;;;;;4962357;28;20611;-74
2022/01/31 09:32:48;;;;;;;2.17;1.63;;;;;;;;;;4931055;28;20445;-74
2022/01/31 09:35:14;;;;;;;1.90;1.17;;;;;;;;;;4960184;28;20470;-74
2022/01/31 09:37:39;;;;;;;3.20;1.33;;;;;;;;;;4957346;28;20455;-75
2022/01/31 09:40:06;;;;;;;3.37;1.50;;;;;;;;;;4962526;28;20563;-75
2022/01/31 09:42:58;;;;;;;2.10;1.17;;;;;;;;;;4957665;28;20453;-74
2022/01/31 09:45:35;;;;;;;2.20;1.27;;;;;;;;;;4972692;28;20471;-75
2022/01/31 09:50:30;;;;;;;2.20;1.27;;;;;;;;;;4969246;28;20568;-73
2022/01/31 09:52:56;;;;;;;1.83;1.40;;;;;;;;;;4921410;28;20788;-74
2022/01/31 09:55:25;;;;;;;2.10;1.40;;;;;;;;;;4957133;28;20602;-75
2022/01/31 09:57:51;;;;;;;6.30;1.23;;;;;;;;;;4954187;28;20717;-74
2022/01/31 10:00:17;;;;;;;1.60;1.03;;;;;;;;;;4957008;28;20873;-75
2022/01/31 10:03:02;;;;;;;2.63;1.67;;;;;;;;;;4918981;28;20887;-75
2022/01/31 10:05:28;;;;;;;1.73;1.10;;;;;;;;;;4961262;28;20448;-73
2022/01/31 10:07:54;;;;;;;3.67;1.77;;;;;;;;;;4938772;28;20480;-75
2022/01/31 10:10:23;;;;;;;1.87;1.60;;;;;;;;;;4960814;28;20453;-74
2022/01/31 10:18:06;;;;;;;4.07;1.90;;;;;;;;;;4958789;28;20452;-74
2022/01/31 10:20:32;;;;;;;7.63;2.17;;;;;;;;;;4962077;28;20472;-75
2022/01/31 10:23:15;;;;;;;4.67;2.13;;;;;;;;;;4940771;28;20871;-75
2022/01/31 10:25:41;;;;;;;2.30;1.70;;;;;;;;;;4960748;28;20441;-74
2022/01/31 10:28:16;;;;;;;3.47;1.80;;;;;;;;;;4934592;28;20529;-74
2022/01/31 10:30:42;;;;;;;1.73;1.63;;;;;;;;;;4967374;28;20515;-75
2022/01/31 10:33:08;;;;;;;3.13;1.93;;;;;;;;;;4958940;28;20993;-75
2022/01/31 10:35:35;;;;;;;3.13;1.30;;;;;;;;;;4968305;28;20853;-76
2022/01/31 10:38:05;;;;;;;1.40;1.00;;;;;;;;;;4942027;28;20472;-76
2022/01/31 10:46:21;;;;;;;3.00;1.73;;;;;;;;;;4961666;28;20459;-77
2022/01/31 10:52:01;;;;;;;3.00;1.50;;;;;;;;;;4965713;28;20913;-74
2022/01/31 10:57:01;;;;;;;2.30;1.47;;;;;;;;;;4939596;28;20547;-74
2022/01/31 10:59:36;;;;;;;2.20;1.70;;;;;;;;;;4978334;28;20726;-75
2022/01/31 11:02:03;;;;;;;1.57;1.13;;;;;;;;;;4959809;28;20535;-76
2022/01/31 11:04:36;;;;;;;2.23;1.70;;;;;;;;;;4958725;28;20438;-75
2022/01/31 11:07:03;;;;;;;1.93;1.40;;;;;;;;;;4933949;28;20448;-75
2022/01/31 11:09:30;;;;;;;3.53;1.90;;;;;;;;;;4960499;28;20628;-74
2022/01/31 11:11:56;;;;;;;1.43;1.30;;;;;;;;;;4958784;28;20448;-74
2022/01/31 11:14:22;;;;;;;2.23;1.53;;;;;;;;;;4962522;28;20441;-74
2022/01/31 11:16:49;;;;;;;2.30;1.43;;;;;;;;;;4942928;28;21177;-74
2022/01/31 11:19:21;;;;;;;2.93;1.27;;;;;;;;;;4935548;28;20855;-74
2022/01/31 11:21:48;;;;;;;4.90;1.30;;;;;;;;;;4954580;28;20756;-74
2022/01/31 11:24:21;;;;;;;1.93;1.23;;;;;;;;;;4952889;28;21124;-74
2022/01/31 11:26:48;;;;;;;2.90;2.57;;;;;;;;;;4963991;28;20587;-74
2022/01/31 11:29:14;;;;;;;1.67;1.30;;;;;;;;;;4913029;28;20502;-76
2022/01/31 11:31:40;;;;;;;3.27;2.97;;;;;;;;;;4960581;28;20767;-76
2022/01/31 11:34:07;;;;;;;2.73;1.53;;;;;;;;;;4960403;28;20551;-75
2022/01/31 11:36:34;;;;;;;3.47;1.57;;;;;;;;;;4980879;28;20452;-75
2022/01/31 11:39:00;;;;;;;4.20;1.40;;;;;;;;;;4937066;28;20442;-75
2022/01/31 11:41:26;;;;;;;2.70;1.83;;;;;;;;;;4967899;28;20774;-75
2022/01/31 11:44:00;;;;;;;2.50;1.70;;;;;;;;;;4955123;28;21165;-74
2022/01/31 11:46:26;;;;;;;1.53;1.40;;;;;;;;;;4960432;28;20429;-74
2022/01/31 11:48:55;;;;;;;2.80;1.40;;;;;;;;;;4940959;28;21456;-74
2022/01/31 11:51:21;;;;;;;1.57;1.30;;;;;;;;;;4960874;28;20437;-74
2022/01/31 11:53:47;;;;;;;2.90;1.30;;;;;;;;;;4952150;28;20454;-74
2022/01/31 11:56:21;;;;;;;6.67;2.13;;;;;;;;;;4960613;28;20445;-76
2022/01/31 11:58:51;;;;;;;2.33;1.17;;;;;;;;;;4956615;28;21192;-75
2022/01/31 12:01:18;;;;;;;2.13;1.10;;;;;;;;;;4969413;28;20452;-75
2022/01/31 12:03:49;;;;;;;3.23;1.50;;;;;;;;;;4917366;28;21289;-75
2022/01/31 12:06:15;;;;;;;2.10;1.70;;;;;;;;;;4972293;28;20460;-72
2022/01/31 12:08:43;;;;;;;4.83;1.53;;;;;;;;;;4954242;28;21224;-74
2022/01/31 12:11:23;;;;;;;3.77;1.70;;;;;;;;;;4951592;28;20440;-75
2022/01/31 12:13:51;;;;;;;4.07;1.73;;;;;;;;;;4927988;28;20975;-75
2022/01/31 12:17:15;;;;;;;1.70;1.40;;;;;;;;;;4957537;28;20437;-74
2022/01/31 12:22:08;;;;;;;3.70;1.80;;;;;;;;;;4956566;28;20469;-75
2022/01/31 12:24:40;;;;;;;1.90;1.23;;;;;;;;;;4940524;28;20516;-74
2022/01/31 12:27:06;;;;;;;1.60;1.20;;;;;;;;;;4959307;28;20446;-75
2022/01/31 12:29:33;;;;;;;3.50;1.50;;;;;;;;;;4937832;28;20488;-73
2022/01/31 12:32:12;;;;;;;6.60;1.90;;;;;;;;;;4957581;28;20472;-73
2022/01/31 12:34:44;;;;;;;2.63;1.20;;;;;;;;;;4907523;28;20503;-73
2022/01/31 12:37:19;;;;;;;5.50;1.37;;;;;;;;;;4953048;28;20484;-74
2022/01/31 12:39:50;;;;;;;2.77;1.97;;;;;;;;;;4949426;28;20445;-75
2022/01/31 12:45:27;;;;;;;1.20;1.00;;;;;;;;;;4934993;28;20922;-75
2022/01/31 12:48:13;;;;;;;5.60;3.00;;;;;;;;;;4954785;28;20982;-74
2022/01/31 12:51:05;;;;;;;6.07;2.00;;;;;;;;;;4953557;28;20528;-75
2022/01/31 12:56:21;;;;;;;1.90;1.50;;;;;;;;;;4955260;28;20534;-74
2022/01/31 12:58:46;;;;;;;1.70;1.13;;;;;;;;;;4923922;28;20722;-74
2022/01/31 13:01:12;;;;;;;4.90;1.80;;;;;;;;;;4954993;28;20611;-73
2022/01/31 13:03:39;;;;;;;2.70;1.67;;;;;;;;;;4943865;28;20441;-74
2022/01/31 13:06:23;;;;;;;1.77;1.50;;;;;;;;;;4922341;28;20453;-76
2022/01/31 13:08:49;;;;;;;3.37;1.60;;;;;;;;;;4964490;28;20896;-73
2022/01/31 13:11:15;;;;;;;4.13;1.80;;;;;;;;;;4938435;28;20527;-73
2022/01/31 13:13:41;;;;;;;6.53;1.53;;;;;;;;;;4964134;28;21043;-73
2022/01/31 13:16:08;;;;;;;1.87;1.00;;;;;;;;;;4931053;28;20445;-74
2022/01/31 13:18:34;;;;;;;2.07;1.33;;;;;;;;;;4960817;28;20492;-74
2022/01/31 13:21:02;;;;;;;3.90;1.80;;;;;;;;;;4949857;28;21411;-74
2022/01/31 13:23:28;;;;;;;4.87;2.07;;;;;;;;;;4962723;28;20456;-73
2022/01/31 13:25:56;;;;;;;6.63;1.77;;;;;;;;;;4957098;28;20441;-73
2022/01/31 13:28:22;;;;;;;3.33;2.60;;;;;;;;;;4961224;28;21041;-73
2022/01/31 13:30:48;;;;;;;2.77;1.60;;;;;;;;;;4955432;28;20484;-74
2022/01/31 13:33:15;;;;;;;1.73;1.37;;;;;;;;;;4946177;28;20452;-74
2022/01/31 13:35:42;;;;;;;3.03;1.67;;;;;;;;;;4956116;28;22358;-74
2022/01/31 13:38:09;;;;;;;2.47;1.50;;;;;;;;;;4929814;28;20695;-74
2022/01/31 13:40:39;;;;;;;2.17;1.60;;;;;;;;;;4958390;28;20456;-73
2022/01/31 13:43:05;;;;;;;1.77;1.00;;;;;;;;;;4941418;28;20958;-74
2022/01/31 13:45:40;;;;;;;4.23;1.60;;;;;;;;;;4957499;28;20444;-73
2022/01/31 13:48:13;;;;;;;2.73;1.83;;;;;;;;;;4933223;28;20464;-72
2022/01/31 13:50:43;;;;;;;3.60;1.63;;;;;;;;;;4951154;28;20455;-73
2022/01/31 13:53:10;;;;;;;3.23;1.40;;;;;;;;;;4938529;28;20514;-73
2022/01/31 13:55:44;;;;;;;2.07;1.10;;;;;;;;;;4960560;28;20449;-73
2022/01/31 13:58:10;;;;;;;2.97;1.40;;;;;;;;;;4960269;28;20707;-74
2022/01/31 14:00:36;;;;;;;3.20;1.40;;;;;;;;;;4961572;28;20442;-74
2022/01/31 14:03:03;;;;;;;3.90;1.23;;;;;;;;;;4943787;28;20441;-74
2022/01/31 14:05:29;;;;;;;2.20;1.47;;;;;;;;;;4961044;28;20441;-75
2022/01/31 14:08:04;;;;;;;4.17;1.50;;;;;;;;;;4952658;28;20977;-74
2022/01/31 14:10:31;;;;;;;1.50;1.23;;;;;;;;;;4962438;28;21344;-74
2022/01/31 14:13:01;;;;;;;2.80;1.77;;;;;;;;;;4922688;28;20543;-74
2022/01/31 14:15:27;;;;;;;3.23;1.23;;;;;;;;;;4960017;28;20500;-75
2022/01/31 14:17:53;;;;;;;2.00;1.30;;;;;;;;;;4959103;28;20446;-74
2022/01/31 14:20:19;;;;;;;4.63;1.53;;;;;;;;;;4961963;28;20523;-74
2022/01/31 14:22:46;;;;;;;5.43;1.40;;;;;;;;;;4936323;28;20463;-74
2022/01/31 14:25:12;;;;;;;3.47;2.20;;;;;;;;;;4960770;28;20465;-75
2022/01/31 14:27:48;;;;;;;2.83;1.50;;;;;;;;;;4954004;28;20530;-76
2022/01/31 14:30:14;;;;;;;3.30;1.20;;;;;;;;;;4962104;28;20457;-76
2022/01/31 14:32:40;;;;;;;2.07;1.87;;;;;;;;;;4957648;28;21099;-76
2022/01/31 14:35:08;;;;;;;4.10;1.50;;;;;;;;;;4941785;28;21456;-74
2022/01/31 14:37:35;;;;;;;2.70;1.30;;;;;;;;;;4950049;28;20441;-74
2022/01/31 14:40:09;;;;;;;2.33;1.70;;;;;;;;;;4952313;28;20515;-73
2022/01/31 14:42:49;;;;;;;3.37;1.33;;;;;;;;;;4958017;28;22246;-73
2022/01/31 14:48:03;;;;;;;3.07;1.47;;;;;;;;;;4942192;28;20489;-74
2022/01/31 14:50:30;;;;;;;2.53;1.50;;;;;;;;;;4961780;28;24368;-74
2022/01/31 14:52:56;;;;;;;1.37;0.90;;;;;;;;;;4956051;28;20530;-75
2022/01/31 14:55:23;;;;;;;4.17;1.40;;;;;;;;;;4961335;28;22235;-74
2022/01/31 14:57:50;;;;;;;5.37;1.90;;;;;;;;;;4933044;28;23840;-75
2022/01/31 15:00:17;;;;;;;8.17;2.43;;;;;;;;;;4961209;28;20495;-76
2022/01/31 15:02:43;;;;;;;2.47;1.30;;;;;;;;;;4940231;28;21020;-75
2022/01/31 15:05:10;;;;;;;3.63;1.63;;;;;;;;;;4958888;28;20438;-73
2022/01/31 15:07:36;;;;;;;1.73;1.63;;;;;;;;;;4937168;28;20453;-75
2022/01/31 15:10:02;;;;;;;2.30;1.63;;;;;;;;;;4960012;28;20472;-75
2022/01/31 15:12:28;;;;;;;3.37;2.37;;;;;;;;;;4937235;28;20449;-74
2022/01/31 15:14:54;;;;;;;4.03;1.40;;;;;;;;;;4959636;28;20495;-74
2022/01/31 15:17:22;;;;;;;5.03;1.77;;;;;;;;;;4916843;28;20437;-76
2022/01/31 15:19:48;;;;;;;7.97;2.40;;;;;;;;;;4943678;28;20456;-76
2022/01/31 15:22:14;;;;;;;5.50;1.97;;;;;;;;;;4959837;28;20441;-75
2022/01/31 15:24:41;;;;;;;3.00;2.37;;;;;;;;;;4967563;28;20536;-75